createdAt,value
2019-01-12T00:00:13.626Z,1008.45
2019-01-12T00:01:13.640Z,1008.41
2019-01-12T00:02:13.656Z,1008.48
2019-01-12T00:03:13.670Z,1008.39
2019-01-12T00:04:13.685Z,1008.45
2019-01-12T00:05:13.699Z,1008.51
2019-01-12T00:06:13.716Z,1008.45
2019-01-12T00:07:13.732Z,1008.46
2019-01-12T00:08:13.744Z,1008.46
2019-01-12T00:10:13.775Z,1008.52
2019-01-12T00:11:13.790Z,1008.53
2019-01-12T00:12:13.804Z,1008.57
2019-01-12T00:13:13.819Z,1008.57
2019-01-12T00:14:13.836Z,1008.55
2019-01-12T00:15:13.848Z,1008.56
2019-01-12T00:16:13.864Z,1008.56
2019-01-12T00:17:13.879Z,1008.58
2019-01-12T00:18:13.894Z,1008.59
2019-01-12T00:19:13.908Z,1008.54
2019-01-12T00:20:13.923Z,1008.57
2019-01-12T00:21:14.039Z,1008.58
2019-01-12T00:22:13.953Z,1008.49
2019-01-12T00:23:13.969Z,1008.54
2019-01-12T00:25:13.999Z,1008.59
2019-01-12T00:26:14.013Z,1008.47
2019-01-12T00:27:14.028Z,1008.59
2019-01-12T00:28:14.043Z,1008.62
2019-01-12T00:29:14.058Z,1008.57
2019-01-12T00:30:14.072Z,1008.62
2019-01-12T00:31:14.087Z,1008.61
2019-01-12T00:32:14.103Z,1008.67
2019-01-12T00:33:14.120Z,1008.61
2019-01-12T00:34:14.132Z,1008.6
2019-01-12T00:35:14.147Z,1008.6
2019-01-12T00:36:14.164Z,1008.64
2019-01-12T00:37:14.176Z,1008.62
2019-01-12T00:38:14.193Z,1008.71
2019-01-12T00:39:14.206Z,1008.63
2019-01-12T00:40:14.221Z,1008.63
2019-01-12T00:41:14.236Z,1008.62
2019-01-12T00:42:14.251Z,1008.63
2019-01-12T00:43:14.268Z,1008.6
2019-01-12T00:44:14.280Z,1008.68
2019-01-12T00:45:14.295Z,1008.65
2019-01-12T00:46:14.310Z,1008.6
2019-01-12T00:47:14.331Z,1008.7
2019-01-12T00:48:14.339Z,1008.67
2019-01-12T00:49:14.354Z,1008.71
2019-01-12T00:50:14.369Z,1008.64
2019-01-12T00:51:14.385Z,1008.73
2019-01-12T00:52:14.399Z,1008.83
2019-01-12T00:53:14.413Z,1008.73
2019-01-12T00:54:14.429Z,1008.72
2019-01-12T00:55:14.444Z,1008.77
2019-01-12T00:57:14.475Z,1008.84
2019-01-12T00:58:14.488Z,1008.79
2019-01-12T00:59:14.502Z,1008.84
2019-01-12T01:00:14.516Z,1008.8
2019-01-12T01:01:14.531Z,1008.87
2019-01-12T01:02:14.546Z,1008.79
2019-01-12T01:03:14.560Z,1008.81
2019-01-12T01:04:14.576Z,1008.83
2019-01-12T01:05:14.591Z,1008.8
2019-01-12T01:06:14.605Z,1008.8
2019-01-12T01:07:14.621Z,1008.94
2019-01-12T01:08:14.636Z,1008.96
2019-01-12T01:09:14.651Z,1008.94
2019-01-12T01:10:14.663Z,1008.96
2019-01-12T01:11:14.679Z,1009.01
2019-01-12T01:13:14.709Z,1009.02
2019-01-12T01:14:14.734Z,1008.97
2019-01-12T01:15:14.739Z,1009.03
2019-01-12T01:16:14.753Z,1009
2019-01-12T01:17:14.767Z,1009.01
2019-01-12T01:18:14.786Z,1009.09
2019-01-12T01:19:14.801Z,1009.03
2019-01-12T01:20:14.812Z,1008.97
2019-01-12T01:21:14.826Z,1009.09
2019-01-12T01:22:14.843Z,1009.08
2019-01-12T01:23:14.856Z,1009.04
2019-01-12T01:24:14.873Z,1009.05
2019-01-12T01:25:14.885Z,1009.03
2019-01-12T01:26:14.900Z,1009.03
2019-01-12T01:27:14.916Z,1009.12
2019-01-12T01:29:14.943Z,1009.09
2019-01-12T01:30:14.959Z,1009.13
2019-01-12T01:31:14.973Z,1009.24
2019-01-12T01:32:14.988Z,1009.13
2019-01-12T01:33:15.002Z,1009.12
2019-01-12T01:34:15.017Z,1009.03
2019-01-12T01:35:15.032Z,1009.14
2019-01-12T01:36:15.046Z,1009.07
2019-01-12T01:37:15.061Z,1009.13
2019-01-12T01:38:15.075Z,1009.1
2019-01-12T01:39:15.093Z,1009.16
2019-01-12T01:40:15.105Z,1009.27
2019-01-12T01:41:15.119Z,1009.19
2019-01-12T01:42:15.135Z,1009.25
2019-01-12T01:43:15.148Z,1009.22
2019-01-12T01:45:15.178Z,1009.28
2019-01-12T01:46:15.193Z,1009.24
2019-01-12T01:47:15.207Z,1009.26
2019-01-12T01:48:15.221Z,1009.31
2019-01-12T01:49:15.238Z,1009.27
2019-01-12T01:50:15.250Z,1009.31
2019-01-12T01:51:15.266Z,1009.32
2019-01-12T01:52:15.334Z,1009.34
2019-01-12T01:53:15.296Z,1009.33
2019-01-12T01:54:15.309Z,1009.32
2019-01-12T01:55:15.324Z,1009.32
2019-01-12T01:56:15.339Z,1009.36
2019-01-12T01:57:15.354Z,1009.36
2019-01-12T01:58:15.372Z,1009.31
2019-01-12T02:00:15.399Z,1009.39
2019-01-12T02:01:15.413Z,1009.33
2019-01-12T02:02:15.428Z,1009.4
2019-01-12T02:03:15.443Z,1009.39
2019-01-12T02:04:15.461Z,1009.39
2019-01-12T02:05:15.472Z,1009.4
2019-01-12T02:06:15.490Z,1009.51
2019-01-12T02:07:15.502Z,1009.47
2019-01-12T02:08:15.515Z,1009.45
2019-01-12T02:09:15.530Z,1009.43
2019-01-12T02:10:15.545Z,1009.38
2019-01-12T02:11:15.560Z,1009.37
2019-01-12T02:12:15.575Z,1009.37
2019-01-12T02:13:15.589Z,1009.32
2019-01-12T02:14:15.605Z,1009.33
2019-01-12T02:15:15.620Z,1009.3
2019-01-12T02:16:15.634Z,1009.35
2019-01-12T02:17:15.648Z,1009.44
2019-01-12T02:18:15.663Z,1009.42
2019-01-12T02:19:15.677Z,1009.34
2019-01-12T02:20:15.692Z,1009.35
2019-01-12T02:21:15.708Z,1009.38
2019-01-12T02:22:15.721Z,1009.35
2019-01-12T02:23:15.738Z,1009.34
2019-01-12T02:24:15.751Z,1009.32
2019-01-12T02:25:15.766Z,1009.37
2019-01-12T02:26:15.781Z,1009.35
2019-01-12T02:27:15.795Z,1009.41
2019-01-12T02:28:15.810Z,1009.33
2019-01-12T02:29:15.825Z,1009.32
2019-01-12T02:30:15.839Z,1009.31
2019-01-12T02:32:15.869Z,1009.29
2019-01-12T02:33:15.884Z,1009.32
2019-01-12T02:34:15.898Z,1009.32
2019-01-12T02:35:15.916Z,1009.29
2019-01-12T02:36:15.928Z,1009.32
2019-01-12T02:37:15.942Z,1009.28
2019-01-12T02:38:15.956Z,1009.27
2019-01-12T02:39:15.986Z,1009.28
2019-01-12T02:40:15.987Z,1009.2
2019-01-12T02:41:16.002Z,1009.27
2019-01-12T02:42:16.016Z,1009.22
2019-01-12T02:43:16.033Z,1009.26
2019-01-12T02:44:16.046Z,1009.25
2019-01-12T02:45:16.059Z,1009.24
2019-01-12T02:46:17.194Z,1009.21
2019-01-12T02:48:16.105Z,1009.19
2019-01-12T02:49:16.119Z,1009.15
2019-01-12T02:50:16.133Z,1009.18
2019-01-12T02:51:16.149Z,1009.13
2019-01-12T02:52:16.162Z,1009.15
2019-01-12T02:53:16.177Z,1009.12
2019-01-12T02:54:16.196Z,1009.11
2019-01-12T02:55:16.208Z,1009.14
2019-01-12T02:56:16.221Z,1009.15
2019-01-12T02:57:16.237Z,1009.17
2019-01-12T02:58:16.252Z,1009.16
2019-01-12T02:59:16.267Z,1009.13
2019-01-12T03:00:16.281Z,1009.08
2019-01-12T03:01:16.295Z,1009.16
2019-01-12T03:02:16.310Z,1009.16
2019-01-12T03:04:16.339Z,1009.15
2019-01-12T03:05:16.365Z,1009.15
2019-01-12T03:06:16.372Z,1009.08
2019-01-12T03:07:16.383Z,1009.14
2019-01-12T03:08:16.398Z,1009.13
2019-01-12T03:09:16.413Z,1009.18
2019-01-12T03:10:16.431Z,1009.16
2019-01-12T03:11:16.443Z,1009.15
2019-01-12T03:12:16.457Z,1009.13
2019-01-12T03:13:16.473Z,1009.13
2019-01-12T03:14:16.486Z,1009.13
2019-01-12T03:15:16.510Z,1009.18
2019-01-12T03:16:16.517Z,1009.16
2019-01-12T03:17:16.533Z,1009.16
2019-01-12T03:18:16.545Z,1009.15
2019-01-12T03:20:16.675Z,1009.11
2019-01-12T03:21:16.591Z,1009.14
2019-01-12T03:22:16.605Z,1009.09
2019-01-12T03:23:16.620Z,1009.03
2019-01-12T03:24:16.634Z,1009.04
2019-01-12T03:25:18.108Z,1009.07
2019-01-12T03:26:16.663Z,1009.1
2019-01-12T03:27:16.678Z,1009.12
2019-01-12T03:28:16.693Z,1009.13
2019-01-12T03:29:16.707Z,1009.07
2019-01-12T03:30:16.722Z,1009.09
2019-01-12T03:31:16.738Z,1009.09
2019-01-12T03:32:16.756Z,1009.11
2019-01-12T03:33:16.770Z,1009.12
2019-01-12T03:35:16.979Z,1009.1
2019-01-12T03:36:16.810Z,1009.08
2019-01-12T03:37:16.825Z,1009.03
2019-01-12T03:38:16.842Z,1009.02
2019-01-12T03:39:16.856Z,1009.04
2019-01-12T03:40:16.907Z,1008.99
2019-01-12T03:41:16.884Z,1009
2019-01-12T03:42:16.906Z,1009.03
2019-01-12T03:43:16.913Z,1009.01
2019-01-12T03:44:16.930Z,1008.97
2019-01-12T03:45:16.943Z,1008.94
2019-01-12T03:46:16.960Z,1008.96
2019-01-12T03:47:16.972Z,1008.98
2019-01-12T03:48:16.987Z,1008.99
2019-01-12T03:49:17.002Z,1008.97
2019-01-12T03:50:17.017Z,1008.96
2019-01-12T03:51:17.031Z,1008.97
2019-01-12T03:52:17.046Z,1008.93
2019-01-12T03:53:17.062Z,1008.97
2019-01-12T03:54:17.075Z,1008.93
2019-01-12T03:55:25.177Z,1008.99
2019-01-12T03:56:17.106Z,1008.94
2019-01-12T03:57:17.120Z,1008.98
2019-01-12T03:58:17.135Z,1008.99
2019-01-12T03:59:17.148Z,1008.97
2019-01-12T04:00:17.242Z,1009
2019-01-12T04:01:17.184Z,1009.01
2019-01-12T04:02:17.194Z,1009
2019-01-12T04:03:17.208Z,1008.97
2019-01-12T04:04:17.223Z,1008.97
2019-01-12T04:05:17.238Z,1008.98
2019-01-12T04:07:17.266Z,1008.97
2019-01-12T04:08:17.282Z,1008.92
2019-01-12T04:09:17.296Z,1008.86
2019-01-12T04:10:17.310Z,1008.82
2019-01-12T04:11:17.325Z,1008.87
2019-01-12T04:12:17.340Z,1008.89
2019-01-12T04:13:17.356Z,1008.85
2019-01-12T04:14:17.369Z,1008.85
2019-01-12T04:15:17.384Z,1008.86
2019-01-12T04:16:17.398Z,1008.79
2019-01-12T04:17:17.413Z,1008.79
2019-01-12T04:18:17.428Z,1008.8
2019-01-12T04:19:17.444Z,1008.87
2019-01-12T04:20:17.457Z,1008.83
2019-01-12T04:21:17.472Z,1008.84
2019-01-12T04:23:17.510Z,1008.82
2019-01-12T04:24:17.516Z,1008.84
2019-01-12T04:25:17.532Z,1008.81
2019-01-12T04:26:17.545Z,1008.78
2019-01-12T04:27:17.560Z,1008.76
2019-01-12T04:28:17.577Z,1008.84
2019-01-12T04:29:17.590Z,1008.79
2019-01-12T04:30:17.618Z,1008.81
2019-01-12T04:31:17.620Z,1008.78
2019-01-12T04:32:17.634Z,1008.79
2019-01-12T04:33:17.648Z,1008.75
2019-01-12T04:34:17.664Z,1008.78
2019-01-12T04:35:17.678Z,1008.77
2019-01-12T04:36:17.692Z,1008.73
2019-01-12T04:37:17.708Z,1008.78
2019-01-12T04:39:17.736Z,1008.75
2019-01-12T04:40:17.752Z,1008.73
2019-01-12T04:41:17.765Z,1008.75
2019-01-12T04:42:17.780Z,1008.71
2019-01-12T04:43:17.794Z,1008.71
2019-01-12T04:44:17.821Z,1008.64
2019-01-12T04:45:17.827Z,1008.66
2019-01-12T04:46:17.838Z,1008.73
2019-01-12T04:47:17.853Z,1008.72
2019-01-12T04:48:19.584Z,1008.68
2019-01-12T04:49:17.884Z,1008.68
2019-01-12T04:50:17.898Z,1008.69
2019-01-12T04:51:17.914Z,1008.73
2019-01-12T04:52:17.929Z,1008.73
2019-01-12T04:53:17.942Z,1008.74
2019-01-12T04:55:17.971Z,1008.7
2019-01-12T04:56:17.986Z,1008.72
2019-01-12T04:57:18.003Z,1008.68
2019-01-12T04:58:18.015Z,1008.65
2019-01-12T04:59:18.030Z,1008.67
2019-01-12T05:00:18.045Z,1008.63
2019-01-12T05:01:18.061Z,1008.63
2019-01-12T05:02:18.074Z,1008.66
2019-01-12T05:03:18.090Z,1008.67
2019-01-12T05:04:18.105Z,1008.69
2019-01-12T05:05:18.164Z,1008.68
2019-01-12T05:06:18.134Z,1008.73
2019-01-12T05:07:18.148Z,1008.69
2019-01-12T05:08:18.163Z,1008.74
2019-01-12T05:10:18.194Z,1008.7
2019-01-12T05:11:18.207Z,1008.71
2019-01-12T05:12:18.223Z,1008.73
2019-01-12T05:13:18.237Z,1008.72
2019-01-12T05:14:18.253Z,1008.72
2019-01-12T05:15:18.268Z,1008.71
2019-01-12T05:16:18.282Z,1008.79
2019-01-12T05:17:18.298Z,1008.73
2019-01-12T05:18:18.311Z,1008.72
2019-01-12T05:19:18.327Z,1008.69
2019-01-12T05:20:18.344Z,1008.74
2019-01-12T05:21:18.361Z,1008.71
2019-01-12T05:22:18.371Z,1008.71
2019-01-12T05:23:18.386Z,1008.74
2019-01-12T05:24:18.400Z,1008.75
2019-01-12T05:25:18.415Z,1008.74
2019-01-12T05:26:18.429Z,1008.73
2019-01-12T05:27:18.444Z,1008.72
2019-01-12T05:28:18.459Z,1008.79
2019-01-12T05:29:18.473Z,1008.65
2019-01-12T05:30:18.493Z,1008.64
2019-01-12T05:31:18.503Z,1008.67
2019-01-12T05:32:18.518Z,1008.65
2019-01-12T05:33:18.532Z,1008.67
2019-01-12T05:34:18.547Z,1008.66
2019-01-12T05:35:18.564Z,1008.68
2019-01-12T05:36:18.579Z,1008.67
2019-01-12T05:37:18.592Z,1008.7
2019-01-12T05:38:18.606Z,1008.59
2019-01-12T05:39:18.621Z,1008.68
2019-01-12T05:40:18.636Z,1008.73
2019-01-12T05:42:18.666Z,1008.69
2019-01-12T05:43:18.681Z,1008.64
2019-01-12T05:44:18.695Z,1008.65
2019-01-12T05:45:18.712Z,1008.71
2019-01-12T05:46:18.725Z,1008.7
2019-01-12T05:47:18.739Z,1008.63
2019-01-12T05:48:18.754Z,1008.63
2019-01-12T05:49:18.768Z,1008.73
2019-01-12T05:50:18.784Z,1008.61
2019-01-12T05:51:18.798Z,1008.66
2019-01-12T05:52:18.813Z,1008.6
2019-01-12T05:53:18.828Z,1008.71
2019-01-12T05:54:18.843Z,1008.6
2019-01-12T05:55:18.858Z,1008.57
2019-01-12T05:56:18.872Z,1008.6
2019-01-12T05:58:18.907Z,1008.61
2019-01-12T05:59:18.916Z,1008.6
2019-01-12T06:00:18.932Z,1008.55
2019-01-12T06:01:18.946Z,1008.59
2019-01-12T06:02:18.960Z,1008.61
2019-01-12T06:03:18.975Z,1008.53
2019-01-12T06:04:18.991Z,1008.57
2019-01-12T06:05:19.005Z,1008.54
2019-01-12T06:06:19.120Z,1008.51
2019-01-12T06:07:19.034Z,1008.57
2019-01-12T06:08:19.049Z,1008.58
2019-01-12T06:09:19.064Z,1008.53
2019-01-12T06:10:19.079Z,1008.57
2019-01-12T06:11:19.093Z,1008.56
2019-01-12T06:12:19.109Z,1008.56
2019-01-12T06:14:19.138Z,1008.67
2019-01-12T06:15:19.156Z,1008.61
2019-01-12T06:16:19.168Z,1008.66
2019-01-12T06:17:19.231Z,1008.64
2019-01-12T06:18:19.196Z,1008.7
2019-01-12T06:19:19.212Z,1008.65
2019-01-12T06:20:19.229Z,1008.68
2019-01-12T06:21:19.240Z,1008.65
2019-01-12T06:22:19.305Z,1008.68
2019-01-12T06:23:19.271Z,1008.71
2019-01-12T06:24:19.285Z,1008.7
2019-01-12T06:25:19.300Z,1008.71
2019-01-12T06:26:19.320Z,1008.72
2019-01-12T06:27:19.330Z,1008.69
2019-01-12T06:28:19.346Z,1008.69
2019-01-12T06:30:19.374Z,1008.67
2019-01-12T06:31:19.397Z,1008.65
2019-01-12T06:32:19.403Z,1008.72
2019-01-12T06:33:19.418Z,1008.7
2019-01-12T06:34:19.435Z,1008.69
2019-01-12T06:35:19.448Z,1008.7
2019-01-12T06:36:19.464Z,1008.72
2019-01-12T06:37:19.477Z,1008.68
2019-01-12T06:38:19.493Z,1008.68
2019-01-12T06:39:19.507Z,1008.71
2019-01-12T06:40:19.524Z,1008.72
2019-01-12T06:41:19.537Z,1008.73
2019-01-12T06:42:19.552Z,1008.65
2019-01-12T06:43:19.567Z,1008.72
2019-01-12T06:45:19.602Z,1008.67
2019-01-12T06:46:19.611Z,1008.69
2019-01-12T06:47:19.626Z,1008.67
2019-01-12T06:48:19.642Z,1008.7
2019-01-12T06:49:19.656Z,1008.67
2019-01-12T06:50:19.670Z,1008.68
2019-01-12T06:51:19.685Z,1008.66
2019-01-12T06:52:19.701Z,1008.68
2019-01-12T06:53:19.718Z,1008.68
2019-01-12T06:54:19.730Z,1008.66
2019-01-12T06:55:19.759Z,1008.67
2019-01-12T06:56:19.761Z,1008.66
2019-01-12T06:57:19.774Z,1008.67
2019-01-12T06:58:19.789Z,1008.7
2019-01-12T06:59:19.804Z,1008.68
2019-01-12T07:00:19.819Z,1008.68
2019-01-12T07:01:19.834Z,1008.68
2019-01-12T07:02:19.849Z,1008.63
2019-01-12T07:03:19.864Z,1008.66
2019-01-12T07:04:19.878Z,1008.69
2019-01-12T07:05:19.893Z,1008.69
2019-01-12T07:06:19.909Z,1008.68
2019-01-12T07:07:19.924Z,1008.7
2019-01-12T07:08:19.937Z,1008.55
2019-01-12T07:09:19.953Z,1008.56
2019-01-12T07:10:19.975Z,1008.5
2019-01-12T07:11:19.983Z,1008.5
2019-01-12T07:12:19.997Z,1008.57
2019-01-12T07:13:20.013Z,1008.56
2019-01-12T07:14:20.028Z,1008.56
2019-01-12T07:15:20.042Z,1008.55
2019-01-12T07:17:20.072Z,1008.58
2019-01-12T07:18:20.087Z,1008.56
2019-01-12T07:19:20.102Z,1008.59
2019-01-12T07:20:20.117Z,1008.56
2019-01-12T07:21:20.132Z,1008.61
2019-01-12T07:22:20.147Z,1008.63
2019-01-12T07:23:20.163Z,1008.6
2019-01-12T07:24:20.177Z,1008.57
2019-01-12T07:25:20.193Z,1008.58
2019-01-12T07:26:20.206Z,1008.63
2019-01-12T07:27:20.221Z,1008.58
2019-01-12T07:28:20.236Z,1008.63
2019-01-12T07:29:20.251Z,1008.6
2019-01-12T07:30:20.265Z,1008.63
2019-01-12T07:31:20.288Z,1008.63
2019-01-12T07:33:20.312Z,1008.63
2019-01-12T07:34:20.325Z,1008.66
2019-01-12T07:35:20.340Z,1008.67
2019-01-12T07:36:20.356Z,1008.7
2019-01-12T07:37:20.370Z,1008.7
2019-01-12T07:38:20.385Z,1008.66
2019-01-12T07:39:20.401Z,1008.67
2019-01-12T07:40:20.416Z,1008.63
2019-01-12T07:41:20.444Z,1008.65
2019-01-12T07:42:20.445Z,1008.66
2019-01-12T07:43:20.461Z,1008.65
2019-01-12T07:44:20.477Z,1008.66
2019-01-12T07:45:20.491Z,1008.67
2019-01-12T07:46:20.505Z,1008.66
2019-01-12T07:47:20.520Z,1008.65
2019-01-12T07:49:20.550Z,1008.66
2019-01-12T07:50:20.565Z,1008.71
2019-01-12T07:51:20.581Z,1008.67
2019-01-12T07:52:20.595Z,1008.69
2019-01-12T07:53:20.610Z,1008.69
2019-01-12T07:54:20.625Z,1008.68
2019-01-12T07:55:20.641Z,1008.64
2019-01-12T07:56:24.345Z,1008.6
2019-01-12T07:57:20.676Z,1008.63
2019-01-12T07:58:20.687Z,1008.62
2019-01-12T07:59:20.700Z,1008.6
2019-01-12T08:00:20.715Z,1008.58
2019-01-12T08:01:20.731Z,1008.65
2019-01-12T08:02:20.747Z,1008.56
2019-01-12T08:03:20.760Z,1008.54
2019-01-12T08:05:20.793Z,1008.54
2019-01-12T08:06:20.806Z,1008.52
2019-01-12T08:07:20.857Z,1008.54
2019-01-12T08:08:20.836Z,1008.55
2019-01-12T08:09:20.851Z,1008.48
2019-01-12T08:10:20.865Z,1008.49
2019-01-12T08:11:20.884Z,1008.47
2019-01-12T08:12:20.896Z,1008.49
2019-01-12T08:13:20.911Z,1008.5
2019-01-12T08:14:20.925Z,1008.43
2019-01-12T08:15:20.941Z,1008.42
2019-01-12T08:16:20.956Z,1008.39
2019-01-12T08:17:20.971Z,1008.38
2019-01-12T08:18:20.986Z,1008.43
2019-01-12T08:20:21.019Z,1008.42
2019-01-12T08:21:21.031Z,1008.4
2019-01-12T08:22:21.046Z,1008.4
2019-01-12T08:23:21.061Z,1008.43
2019-01-12T08:24:21.077Z,1008.36
2019-01-12T08:25:21.091Z,1008.35
2019-01-12T08:26:21.106Z,1008.3
2019-01-12T08:27:21.120Z,1008.35
2019-01-12T08:28:21.137Z,1008.35
2019-01-12T08:29:21.150Z,1008.33
2019-01-12T08:30:21.166Z,1008.28
2019-01-12T08:31:21.182Z,1008.27
2019-01-12T08:32:21.196Z,1008.29
2019-01-12T08:33:21.215Z,1008.26
2019-01-12T08:34:21.226Z,1008.3
2019-01-12T08:35:21.242Z,1008.28
2019-01-12T08:36:21.258Z,1008.29
2019-01-12T08:37:21.271Z,1008.28
2019-01-12T08:38:21.287Z,1008.28
2019-01-12T08:39:21.301Z,1008.25
2019-01-12T08:40:21.317Z,1008.3
2019-01-12T08:41:21.332Z,1008.27
2019-01-12T08:42:21.347Z,1008.27
2019-01-12T08:43:21.362Z,1008.2
2019-01-12T08:44:21.378Z,1008.22
2019-01-12T08:45:21.397Z,1008.23
2019-01-12T08:46:21.408Z,1008.15
2019-01-12T08:47:21.422Z,1008.15
2019-01-12T08:48:21.439Z,1008.14
2019-01-12T08:49:21.453Z,1008.1
2019-01-12T08:50:21.468Z,1008.08
2019-01-12T08:52:21.500Z,1008.1
2019-01-12T08:53:21.515Z,1008.05
2019-01-12T08:54:21.529Z,1008.07
2019-01-12T08:55:21.544Z,1008.07
2019-01-12T08:56:21.560Z,1008.02
2019-01-12T08:57:21.575Z,1008.08
2019-01-12T08:58:21.590Z,1008.02
2019-01-12T08:59:21.605Z,1008.04
2019-01-12T09:00:21.623Z,1008.03
2019-01-12T09:01:21.638Z,1008.02
2019-01-12T09:02:21.651Z,1008.01
2019-01-12T09:03:21.668Z,1007.96
2019-01-12T09:04:21.682Z,1008.01
2019-01-12T09:05:21.696Z,1007.98
2019-01-12T09:06:21.712Z,1007.98
2019-01-12T09:08:21.742Z,1007.95
2019-01-12T09:09:21.756Z,1007.92
2019-01-12T09:10:21.776Z,1007.9
2019-01-12T09:11:21.788Z,1007.89
2019-01-12T09:12:21.802Z,1007.9
2019-01-12T09:13:21.818Z,1007.86
2019-01-12T09:14:21.834Z,1007.88
2019-01-12T09:15:21.849Z,1007.86
2019-01-12T09:16:21.864Z,1007.82
2019-01-12T09:17:21.879Z,1007.78
2019-01-12T09:18:21.894Z,1007.83
2019-01-12T09:19:21.911Z,1007.8
2019-01-12T09:20:21.927Z,1007.81
2019-01-12T09:21:21.947Z,1007.78
2019-01-12T09:22:21.962Z,1007.78
2019-01-12T09:24:21.986Z,1007.71
2019-01-12T09:25:22.004Z,1007.69
2019-01-12T09:26:22.017Z,1007.7
2019-01-12T09:27:22.031Z,1007.66
2019-01-12T09:28:22.047Z,1007.67
2019-01-12T09:29:22.063Z,1007.66
2019-01-12T09:30:22.081Z,1007.69
2019-01-12T09:31:22.093Z,1007.66
2019-01-12T09:32:22.108Z,1007.61
2019-01-12T09:33:22.123Z,1007.61
2019-01-12T09:34:22.138Z,1007.62
2019-01-12T09:35:22.156Z,1007.59
2019-01-12T09:36:22.169Z,1007.55
2019-01-12T09:37:22.185Z,1007.56
2019-01-12T09:38:22.199Z,1007.55
2019-01-12T09:40:22.231Z,1007.55
2019-01-12T09:41:22.247Z,1007.54
2019-01-12T09:42:22.260Z,1007.55
2019-01-12T09:43:22.276Z,1007.53
2019-01-12T09:44:22.292Z,1007.48
2019-01-12T09:45:22.305Z,1007.44
2019-01-12T09:46:22.321Z,1007.42
2019-01-12T09:47:22.337Z,1007.45
2019-01-12T09:48:22.352Z,1007.43
2019-01-12T09:49:22.368Z,1007.39
2019-01-12T09:50:22.383Z,1007.38
2019-01-12T09:51:22.398Z,1007.38
2019-01-12T09:52:22.415Z,1007.39
2019-01-12T09:53:22.429Z,1007.35
2019-01-12T09:55:22.460Z,1007.36
2019-01-12T09:56:22.486Z,1007.33
2019-01-12T09:57:22.490Z,1007.33
2019-01-12T09:58:22.506Z,1007.3
2019-01-12T09:59:22.524Z,1007.23
2019-01-12T10:00:22.541Z,1007.22
2019-01-12T10:01:22.552Z,1007.21
2019-01-12T10:02:22.567Z,1007.19
2019-01-12T10:03:22.581Z,1007.17
2019-01-12T10:04:22.597Z,1007.19
2019-01-12T10:05:22.612Z,1007.13
2019-01-12T10:06:22.628Z,1007.14
2019-01-12T10:07:22.644Z,1007.08
2019-01-12T10:08:22.658Z,1007.07
2019-01-12T10:09:22.674Z,1007.02
2019-01-12T10:10:22.690Z,1007
2019-01-12T10:11:22.706Z,1006.98
2019-01-12T10:12:22.726Z,1006.97
2019-01-12T10:13:22.735Z,1006.96
2019-01-12T10:14:22.750Z,1006.94
2019-01-12T10:15:22.765Z,1006.92
2019-01-12T10:16:22.781Z,1006.87
2019-01-12T10:17:22.797Z,1006.84
2019-01-12T10:18:22.811Z,1006.82
2019-01-12T10:19:22.827Z,1006.75
2019-01-12T10:20:22.843Z,1006.72
2019-01-12T10:21:22.859Z,1006.77
2019-01-12T10:22:28.498Z,1006.74
2019-01-12T10:23:22.891Z,1006.76
2019-01-12T10:24:22.905Z,1006.76
2019-01-12T10:25:22.923Z,1006.75
2019-01-12T10:27:22.951Z,1006.75
2019-01-12T10:28:22.966Z,1006.65
2019-01-12T10:29:22.981Z,1006.67
2019-01-12T10:30:22.998Z,1006.63
2019-01-12T10:31:23.013Z,1006.68
2019-01-12T10:32:23.029Z,1006.63
2019-01-12T10:33:23.044Z,1006.59
2019-01-12T10:34:23.059Z,1006.6
2019-01-12T10:35:23.075Z,1006.57
2019-01-12T10:36:23.090Z,1006.62
2019-01-12T10:37:23.106Z,1006.56
2019-01-12T10:38:23.121Z,1006.6
2019-01-12T10:39:23.138Z,1006.64
2019-01-12T10:40:23.152Z,1006.55
2019-01-12T10:41:23.171Z,1006.48
2019-01-12T10:43:23.199Z,1006.46
2019-01-12T10:44:23.214Z,1006.46
2019-01-12T10:45:23.230Z,1006.46
2019-01-12T10:46:23.246Z,1006.45
2019-01-12T10:47:23.262Z,1006.34
2019-01-12T10:48:23.277Z,1006.37
2019-01-12T10:49:23.293Z,1006.38
2019-01-12T10:50:23.315Z,1006.33
2019-01-12T10:51:23.323Z,1006.37
2019-01-12T10:52:23.340Z,1006.37
2019-01-12T10:53:23.355Z,1006.32
2019-01-12T10:54:23.371Z,1006.31
2019-01-12T10:55:23.387Z,1006.37
2019-01-12T10:56:23.403Z,1006.3
2019-01-12T10:57:23.418Z,1006.34
2019-01-12T10:59:23.451Z,1006.3
2019-01-12T11:00:23.464Z,1006.27
2019-01-12T11:01:23.481Z,1006.25
2019-01-12T11:02:23.533Z,1006.21
2019-01-12T11:03:23.512Z,1006.23
2019-01-12T11:04:23.528Z,1006.15
2019-01-12T11:05:23.544Z,1006.18
2019-01-12T11:06:23.559Z,1006.14
2019-01-12T11:07:23.575Z,1006.16
2019-01-12T11:08:23.591Z,1006.12
2019-01-12T11:09:23.606Z,1006.13
2019-01-12T11:10:23.622Z,1006.11
2019-01-12T11:11:23.637Z,1006.1
2019-01-12T11:12:23.654Z,1006.06
2019-01-12T11:13:23.669Z,1006.07
2019-01-12T11:15:23.701Z,1006.05
2019-01-12T11:16:23.717Z,1005.98
2019-01-12T11:17:23.732Z,1006.09
2019-01-12T11:18:23.749Z,1006.01
2019-01-12T11:19:23.765Z,1006.07
2019-01-12T11:20:23.779Z,1006.1
2019-01-12T11:21:23.795Z,1005.93
2019-01-12T11:22:24.887Z,1005.95
2019-01-12T11:23:23.828Z,1005.93
2019-01-12T11:24:23.843Z,1005.87
2019-01-12T11:25:23.859Z,1005.85
2019-01-12T11:26:23.874Z,1005.76
2019-01-12T11:27:23.892Z,1005.79
2019-01-12T11:28:23.907Z,1005.83
2019-01-12T11:30:23.939Z,1005.85
2019-01-12T11:31:23.955Z,1005.74
2019-01-12T11:32:23.971Z,1005.76
2019-01-12T11:33:23.987Z,1005.7
2019-01-12T11:34:24.003Z,1005.7
2019-01-12T11:35:24.018Z,1005.73
2019-01-12T11:36:24.036Z,1005.71
2019-01-12T11:37:24.052Z,1005.62
2019-01-12T11:38:24.066Z,1005.67
2019-01-12T11:39:24.082Z,1005.64
2019-01-12T11:40:24.098Z,1005.55
2019-01-12T11:41:24.115Z,1005.55
2019-01-12T11:42:24.130Z,1005.5
2019-01-12T11:43:24.149Z,1005.53
2019-01-12T11:44:24.163Z,1005.51
2019-01-12T11:45:24.179Z,1005.56
2019-01-12T11:46:24.194Z,1005.54
2019-01-12T11:47:24.211Z,1005.52
2019-01-12T11:48:24.227Z,1005.51
2019-01-12T11:49:24.242Z,1005.42
2019-01-12T11:50:24.258Z,1005.46
2019-01-12T11:51:24.274Z,1005.41
2019-01-12T11:52:24.290Z,1005.41
2019-01-12T11:53:24.308Z,1005.46
2019-01-12T11:54:24.327Z,1005.42
2019-01-12T11:55:24.338Z,1005.36
2019-01-12T11:56:24.355Z,1005.35
2019-01-12T11:57:24.370Z,1005.35
2019-01-12T11:58:24.386Z,1005.35
2019-01-12T11:59:24.402Z,1005.33
2019-01-12T12:00:24.418Z,1005.28
2019-01-12T12:02:24.452Z,1005.28
2019-01-12T12:03:24.470Z,1005.21
2019-01-12T12:04:24.483Z,1005.24
2019-01-12T12:05:24.498Z,1005.18
2019-01-12T12:06:24.515Z,1005.16
2019-01-12T12:07:24.530Z,1005.1
2019-01-12T12:08:24.545Z,1005.1
2019-01-12T12:09:24.562Z,1005.02
2019-01-12T12:10:24.578Z,1005.11
2019-01-12T12:11:24.595Z,1005.09
2019-01-12T12:12:24.609Z,1005.09
2019-01-12T12:13:24.626Z,1005.05
2019-01-12T12:14:24.651Z,1005.1
2019-01-12T12:15:24.657Z,1004.98
2019-01-12T12:16:24.673Z,1004.99
2019-01-12T12:18:24.706Z,1004.9
2019-01-12T12:19:24.721Z,1004.84
2019-01-12T12:20:24.736Z,1004.86
2019-01-12T12:21:24.755Z,1004.78
2019-01-12T12:22:24.772Z,1004.85
2019-01-12T12:23:24.785Z,1004.82
2019-01-12T12:24:24.801Z,1004.88
2019-01-12T12:25:24.818Z,1004.81
2019-01-12T12:26:24.833Z,1004.78
2019-01-12T12:27:26.035Z,1004.75
2019-01-12T12:28:24.866Z,1004.69
2019-01-12T12:29:24.889Z,1004.76
2019-01-12T12:30:24.896Z,1004.69
2019-01-12T12:31:24.913Z,1004.71
2019-01-12T12:32:24.930Z,1004.68
2019-01-12T12:34:24.965Z,1004.56
2019-01-12T12:35:24.977Z,1004.52
2019-01-12T12:36:24.994Z,1004.54
2019-01-12T12:37:25.009Z,1004.48
2019-01-12T12:38:25.026Z,1004.52
2019-01-12T12:39:25.042Z,1004.45
2019-01-12T12:40:25.058Z,1004.44
2019-01-12T12:41:25.074Z,1004.4
2019-01-12T12:42:25.089Z,1004.37
2019-01-12T12:43:25.106Z,1004.38
2019-01-12T12:44:25.122Z,1004.44
2019-01-12T12:45:25.140Z,1004.38
2019-01-12T12:46:25.155Z,1004.36
2019-01-12T12:47:25.171Z,1004.33
2019-01-12T12:48:25.577Z,1004.26